SAS2873 ENBR-EKCH
Flight info
| Callsign | SAS2873 |
|---|---|
| Flight time | 1h 8m |
| Altitude | 35000 |
| Route | TUXIL DCT ZOL DCT TESPI |
| Aircraft | A319/M-SDE3FGIJ1RWXY/LB1 |
Departure
| Time | 2026-05-06 22:25 |
|---|---|
| Airport | Bergen Airport, Flesland (ENBR) |
Arrival
| Time | 2026-05-06 23:33 |
|---|---|
| Airport | Copenhagen Kastrup Airport (EKCH) |
| Time | Latitude | Longitude | Altitude | Speed | Heading |
|---|---|---|---|---|---|
| 2026-05-06 22:07 | 60.28831 | 5.22626 | 172 ft | 0 kts | 32° |
| 2026-05-06 22:14 | 60.28831 | 5.22625 | 172 ft | 0 kts | 32° |
| 2026-05-06 22:14 | 60.28824 | 5.22616 | 172 ft | 2 kts | 35° |
| 2026-05-06 22:15 | 60.28812 | 5.22599 | 172 ft | 2 kts | 34° |
| 2026-05-06 22:15 | 60.28799 | 5.22582 | 172 ft | 2 kts | 34° |
| 2026-05-06 22:15 | 60.28787 | 5.22565 | 172 ft | 2 kts | 34° |
| 2026-05-06 22:15 | 60.28775 | 5.22547 | 171 ft | 2 kts | 34° |
| 2026-05-06 22:16 | 60.28762 | 5.22530 | 171 ft | 2 kts | 33° |
| 2026-05-06 22:16 | 60.28749 | 5.22513 | 171 ft | 2 kts | 33° |
| 2026-05-06 22:16 | 60.28737 | 5.22497 | 171 ft | 1 kts | 33° |
| 2026-05-06 22:16 | 60.28730 | 5.22486 | 171 ft | 2 kts | 29° |
| 2026-05-06 22:17 | 60.28716 | 5.22476 | 170 ft | 2 kts | 11° |
| 2026-05-06 22:17 | 60.28701 | 5.22474 | 170 ft | 2 kts | 354° |
| 2026-05-06 22:17 | 60.28694 | 5.22476 | 170 ft | 1 kts | 346° |
| 2026-05-06 22:17 | 60.28691 | 5.22477 | 170 ft | 0 kts | 348° |
| 2026-05-06 22:19 | 60.28694 | 5.22476 | 170 ft | 1 kts | 348° |
| 2026-05-06 22:19 | 60.28724 | 5.22464 | 170 ft | 7 kts | 348° |
| 2026-05-06 22:20 | 60.28785 | 5.22428 | 170 ft | 11 kts | 325° |
| 2026-05-06 22:20 | 60.28849 | 5.22304 | 170 ft | 14 kts | 332° |
| 2026-05-06 22:20 | 60.28951 | 5.22264 | 169 ft | 15 kts | 351° |
| 2026-05-06 22:20 | 60.29065 | 5.22234 | 169 ft | 17 kts | 355° |
| 2026-05-06 22:21 | 60.29186 | 5.22193 | 167 ft | 18 kts | 349° |
| 2026-05-06 22:21 | 60.29329 | 5.22141 | 164 ft | 22 kts | 350° |
| 2026-05-06 22:21 | 60.29487 | 5.22087 | 162 ft | 23 kts | 350° |
| 2026-05-06 22:21 | 60.29651 | 5.22030 | 159 ft | 24 kts | 349° |
| 2026-05-06 22:22 | 60.29818 | 5.21975 | 159 ft | 24 kts | 351° |
| 2026-05-06 22:22 | 60.29984 | 5.21920 | 160 ft | 23 kts | 350° |
| 2026-05-06 22:22 | 60.30139 | 5.21870 | 163 ft | 22 kts | 349° |
| 2026-05-06 22:22 | 60.30283 | 5.21816 | 167 ft | 20 kts | 350° |
| 2026-05-06 22:23 | 60.30411 | 5.21773 | 172 ft | 16 kts | 345° |
| 2026-05-06 22:23 | 60.30442 | 5.21684 | 173 ft | 7 kts | 265° |
| 2026-05-06 22:23 | 60.30430 | 5.21575 | 175 ft | 8 kts | 254° |
| 2026-05-06 22:23 | 60.30400 | 5.21468 | 175 ft | 9 kts | 208° |
| 2026-05-06 22:24 | 60.30360 | 5.21469 | 174 ft | 10 kts | 167° |
| 2026-05-06 22:24 | 60.30017 | 5.21591 | 163 ft | 87 kts | 170° |
| 2026-05-06 22:24 | 60.29201 | 5.21860 | 164 ft | 147 kts | 169° |
| 2026-05-06 22:24 | 60.28097 | 5.22214 | 503 ft | 168 kts | 170° |
| 2026-05-06 22:25 | 60.26959 | 5.22601 | 1275 ft | 165 kts | 169° |
| 2026-05-06 22:25 | 60.25880 | 5.22975 | 2138 ft | 157 kts | 169° |
| 2026-05-06 22:25 | 60.24763 | 5.23360 | 2652 ft | 171 kts | 169° |
| 2026-05-06 22:25 | 60.23543 | 5.23777 | 3151 ft | 188 kts | 169° |
| 2026-05-06 22:26 | 60.22212 | 5.24227 | 3661 ft | 205 kts | 170° |
| 2026-05-06 22:26 | 60.20697 | 5.24737 | 4148 ft | 229 kts | 170° |
| 2026-05-06 22:26 | 60.19085 | 5.25278 | 4746 ft | 247 kts | 171° |
| 2026-05-06 22:26 | 60.17338 | 5.25861 | 5397 ft | 264 kts | 171° |
| 2026-05-06 22:27 | 60.15518 | 5.26468 | 6279 ft | 271 kts | 171° |
| 2026-05-06 22:27 | 60.13637 | 5.27095 | 7230 ft | 275 kts | 172° |
| 2026-05-06 22:27 | 60.11764 | 5.27716 | 8154 ft | 279 kts | 172° |
| 2026-05-06 22:27 | 60.09853 | 5.28349 | 9066 ft | 282 kts | 172° |
| 2026-05-06 22:28 | 60.07898 | 5.28946 | 9935 ft | 286 kts | 174° |
| 2026-05-06 22:28 | 60.05912 | 5.29476 | 10624 ft | 295 kts | 175° |
| 2026-05-06 22:28 | 60.03833 | 5.30017 | 11037 ft | 312 kts | 175° |
| 2026-05-06 22:28 | 60.01604 | 5.30597 | 11403 ft | 331 kts | 175° |
| 2026-05-06 22:29 | 59.99275 | 5.31212 | 11791 ft | 346 kts | 175° |
| 2026-05-06 22:29 | 59.96864 | 5.31857 | 12448 ft | 353 kts | 176° |
| 2026-05-06 22:29 | 59.94445 | 5.32508 | 13170 ft | 357 kts | 177° |
| 2026-05-06 22:29 | 59.91962 | 5.33176 | 13869 ft | 361 kts | 178° |
| 2026-05-06 22:30 | 59.89485 | 5.33836 | 14534 ft | 365 kts | 178° |
| 2026-05-06 22:30 | 59.86964 | 5.34501 | 15224 ft | 368 kts | 179° |
| 2026-05-06 22:30 | 59.84393 | 5.35180 | 15929 ft | 371 kts | 179° |
| 2026-05-06 22:30 | 59.81858 | 5.35849 | 16605 ft | 373 kts | 180° |
| 2026-05-06 22:31 | 59.79280 | 5.36451 | 17273 ft | 374 kts | 182° |
| 2026-05-06 22:31 | 59.76675 | 5.36882 | 17920 ft | 376 kts | 183° |
| 2026-05-06 22:31 | 59.74088 | 5.37310 | 18532 ft | 379 kts | 183° |
| 2026-05-06 22:31 | 59.71422 | 5.37746 | 19136 ft | 382 kts | 183° |
| 2026-05-06 22:32 | 59.68807 | 5.38178 | 19714 ft | 385 kts | 184° |
| 2026-05-06 22:32 | 59.66113 | 5.38623 | 20305 ft | 387 kts | 184° |
| 2026-05-06 22:32 | 59.63454 | 5.39176 | 20839 ft | 393 kts | 181° |
| 2026-05-06 22:32 | 59.60738 | 5.39869 | 21396 ft | 395 kts | 181° |
| 2026-05-06 22:33 | 59.58022 | 5.40557 | 21914 ft | 397 kts | 181° |
| 2026-05-06 22:33 | 59.55299 | 5.41244 | 22416 ft | 400 kts | 181° |
| 2026-05-06 22:33 | 59.52544 | 5.41940 | 22932 ft | 402 kts | 181° |
| 2026-05-06 22:33 | 59.49777 | 5.42638 | 23437 ft | 404 kts | 181° |
| 2026-05-06 22:34 | 59.46975 | 5.43348 | 23948 ft | 406 kts | 181° |
| 2026-05-06 22:34 | 59.44164 | 5.44055 | 24427 ft | 408 kts | 181° |
| 2026-05-06 22:34 | 59.41381 | 5.44754 | 24853 ft | 410 kts | 180° |
| 2026-05-06 22:34 | 59.38549 | 5.45658 | 25301 ft | 415 kts | 178° |
| 2026-05-06 22:35 | 59.35695 | 5.46709 | 25730 ft | 417 kts | 178° |
| 2026-05-06 22:35 | 59.32872 | 5.47733 | 26168 ft | 418 kts | 178° |
| 2026-05-06 22:35 | 59.30005 | 5.48771 | 26581 ft | 421 kts | 177° |
| 2026-05-06 22:35 | 59.27119 | 5.49817 | 26993 ft | 422 kts | 177° |
| 2026-05-06 22:36 | 59.24263 | 5.50851 | 27416 ft | 424 kts | 177° |
| 2026-05-06 22:36 | 59.21353 | 5.51904 | 27781 ft | 426 kts | 177° |
| 2026-05-06 22:36 | 59.18440 | 5.52953 | 28155 ft | 428 kts | 177° |
| 2026-05-06 22:36 | 59.15516 | 5.54007 | 28520 ft | 430 kts | 177° |
| 2026-05-06 22:37 | 59.12603 | 5.55059 | 28884 ft | 432 kts | 177° |
| 2026-05-06 22:37 | 59.09606 | 5.56139 | 29236 ft | 434 kts | 177° |
| 2026-05-06 22:37 | 59.06636 | 5.57209 | 29658 ft | 434 kts | 177° |
| 2026-05-06 22:37 | 59.03708 | 5.58264 | 30173 ft | 431 kts | 177° |
| 2026-05-06 22:38 | 59.00760 | 5.59321 | 30674 ft | 428 kts | 176° |
| 2026-05-06 22:38 | 58.97838 | 5.60365 | 31115 ft | 427 kts | 177° |
| 2026-05-06 22:38 | 58.94962 | 5.61498 | 31488 ft | 430 kts | 173° |
| 2026-05-06 22:38 | 58.92065 | 5.63150 | 31870 ft | 435 kts | 168° |
| 2026-05-06 22:39 | 58.89223 | 5.65360 | 32291 ft | 439 kts | 163° |
| 2026-05-06 22:39 | 58.86492 | 5.68090 | 32682 ft | 444 kts | 158° |
| 2026-05-06 22:39 | 58.83920 | 5.71300 | 33009 ft | 449 kts | 152° |
| 2026-05-06 22:39 | 58.81451 | 5.75084 | 33324 ft | 454 kts | 146° |
| 2026-05-06 22:40 | 58.79117 | 5.79254 | 33604 ft | 456 kts | 144° |
| 2026-05-06 22:40 | 58.76799 | 5.83510 | 33846 ft | 458 kts | 144° |
| 2026-05-06 22:40 | 58.74499 | 5.87739 | 34094 ft | 459 kts | 144° |
| 2026-05-06 22:40 | 58.72182 | 5.91990 | 34319 ft | 460 kts | 144° |
| 2026-05-06 22:41 | 58.67543 | 6.00447 | 34755 ft | 461 kts | 144° |
| 2026-05-06 22:41 | 58.65216 | 6.04667 | 34917 ft | 462 kts | 144° |
| 2026-05-06 22:42 | 58.60542 | 6.13107 | 34985 ft | 464 kts | 144° |
| 2026-05-06 22:42 | 58.55858 | 6.21538 | 34991 ft | 464 kts | 144° |
| 2026-05-06 22:43 | 58.51145 | 6.29982 | 34986 ft | 464 kts | 144° |
| 2026-05-06 22:43 | 58.46455 | 6.38355 | 34976 ft | 464 kts | 144° |
| 2026-05-06 22:44 | 58.41745 | 6.46733 | 34999 ft | 463 kts | 144° |
| 2026-05-06 22:44 | 58.37047 | 6.55054 | 34989 ft | 462 kts | 144° |
| 2026-05-06 22:45 | 58.32338 | 6.63363 | 34979 ft | 461 kts | 144° |
| 2026-05-06 22:45 | 58.27640 | 6.71621 | 34974 ft | 460 kts | 145° |
| 2026-05-06 22:46 | 58.22915 | 6.79894 | 34962 ft | 459 kts | 145° |
| 2026-05-06 22:46 | 58.18248 | 6.88031 | 34950 ft | 459 kts | 145° |
| 2026-05-06 22:47 | 58.13550 | 6.96197 | 34946 ft | 458 kts | 145° |
| 2026-05-06 22:47 | 58.08854 | 7.04326 | 34945 ft | 458 kts | 145° |
| 2026-05-06 22:48 | 58.04169 | 7.12406 | 34963 ft | 458 kts | 145° |
| 2026-05-06 22:48 | 57.99489 | 7.20450 | 34960 ft | 458 kts | 145° |
| 2026-05-06 22:49 | 57.94783 | 7.28510 | 34955 ft | 457 kts | 145° |
| 2026-05-06 22:49 | 57.90104 | 7.36493 | 34954 ft | 457 kts | 145° |
| 2026-05-06 22:50 | 57.85397 | 7.44495 | 34957 ft | 457 kts | 145° |
| 2026-05-06 22:50 | 57.80697 | 7.52451 | 34958 ft | 456 kts | 144° |
| 2026-05-06 22:51 | 57.76006 | 7.60364 | 34958 ft | 457 kts | 144° |
| 2026-05-06 22:51 | 57.71310 | 7.68257 | 34958 ft | 456 kts | 145° |
| 2026-05-06 22:52 | 57.66586 | 7.76172 | 34958 ft | 456 kts | 145° |
| 2026-05-06 22:52 | 57.61885 | 7.84017 | 34958 ft | 456 kts | 145° |
| 2026-05-06 22:53 | 57.57161 | 7.91874 | 34958 ft | 456 kts | 145° |
| 2026-05-06 22:53 | 57.52477 | 7.99636 | 34957 ft | 454 kts | 145° |
| 2026-05-06 22:54 | 57.47769 | 8.07411 | 34956 ft | 453 kts | 145° |
| 2026-05-06 22:54 | 57.43052 | 8.15169 | 34955 ft | 454 kts | 145° |
| 2026-05-06 22:55 | 57.38362 | 8.22855 | 34958 ft | 453 kts | 145° |
| 2026-05-06 22:55 | 57.33643 | 8.30564 | 34956 ft | 453 kts | 145° |
| 2026-05-06 22:56 | 57.28938 | 8.38223 | 34962 ft | 454 kts | 145° |
| 2026-05-06 22:56 | 57.24233 | 8.45852 | 34954 ft | 452 kts | 145° |
| 2026-05-06 22:57 | 57.19509 | 8.53489 | 34951 ft | 451 kts | 145° |
| 2026-05-06 22:57 | 57.14801 | 8.61069 | 34955 ft | 450 kts | 145° |
| 2026-05-06 22:58 | 57.10095 | 8.68624 | 34957 ft | 450 kts | 146° |
| 2026-05-06 22:58 | 57.05382 | 8.76162 | 34943 ft | 449 kts | 146° |
| 2026-05-06 22:59 | 57.00692 | 8.83636 | 34945 ft | 448 kts | 146° |
| 2026-05-06 22:59 | 56.95979 | 8.91120 | 34933 ft | 447 kts | 146° |
| 2026-05-06 23:00 | 56.91306 | 8.98509 | 34946 ft | 447 kts | 146° |
| 2026-05-06 23:00 | 56.86620 | 9.05902 | 34944 ft | 446 kts | 146° |
| 2026-05-06 23:01 | 56.81905 | 9.13314 | 34941 ft | 446 kts | 146° |
| 2026-05-06 23:01 | 56.77191 | 9.20695 | 34937 ft | 445 kts | 146° |
| 2026-05-06 23:02 | 56.72507 | 9.28008 | 34930 ft | 444 kts | 146° |
| 2026-05-06 23:02 | 56.67857 | 9.35242 | 34926 ft | 443 kts | 146° |
| 2026-05-06 23:03 | 56.63179 | 9.42494 | 34927 ft | 443 kts | 146° |
| 2026-05-06 23:03 | 56.58498 | 9.49724 | 34921 ft | 442 kts | 146° |
| 2026-05-06 23:04 | 56.53839 | 9.56897 | 34917 ft | 442 kts | 146° |
| 2026-05-06 23:04 | 56.49157 | 9.64085 | 34919 ft | 442 kts | 146° |
| 2026-05-06 23:05 | 56.44481 | 9.71239 | 34916 ft | 441 kts | 147° |
| 2026-05-06 23:05 | 56.39816 | 9.78351 | 34916 ft | 440 kts | 147° |
| 2026-05-06 23:06 | 56.35149 | 9.85443 | 34913 ft | 440 kts | 147° |
| 2026-05-06 23:06 | 56.30485 | 9.92509 | 34911 ft | 438 kts | 147° |
| 2026-05-06 23:07 | 56.25844 | 9.99515 | 34910 ft | 438 kts | 147° |
| 2026-05-06 23:07 | 56.21176 | 10.06536 | 34910 ft | 438 kts | 147° |
| 2026-05-06 23:08 | 56.16551 | 10.13477 | 34817 ft | 432 kts | 147° |
| 2026-05-06 23:08 | 56.14255 | 10.16918 | 34235 ft | 430 kts | 147° |
| 2026-05-06 23:08 | 56.11985 | 10.20301 | 33165 ft | 439 kts | 147° |
| 2026-05-06 23:08 | 56.09629 | 10.23799 | 32025 ft | 447 kts | 146° |
| 2026-05-06 23:09 | 56.07243 | 10.27345 | 30989 ft | 452 kts | 146° |
| 2026-05-06 23:09 | 56.04828 | 10.30934 | 29967 ft | 455 kts | 146° |
| 2026-05-06 23:09 | 56.02414 | 10.34520 | 28880 ft | 459 kts | 146° |
| 2026-05-06 23:09 | 55.99969 | 10.38146 | 27915 ft | 459 kts | 145° |
| 2026-05-06 23:10 | 55.97522 | 10.41774 | 27215 ft | 454 kts | 145° |
| 2026-05-06 23:10 | 55.95145 | 10.45290 | 26520 ft | 449 kts | 145° |
| 2026-05-06 23:10 | 55.92735 | 10.48862 | 25793 ft | 446 kts | 143° |
| 2026-05-06 23:10 | 55.90650 | 10.52945 | 25002 ft | 454 kts | 128° |
| 2026-05-06 23:11 | 55.89238 | 10.57964 | 24309 ft | 460 kts | 112° |
| 2026-05-06 23:11 | 55.88463 | 10.63473 | 23697 ft | 458 kts | 105° |
| 2026-05-06 23:11 | 55.87821 | 10.69037 | 23073 ft | 455 kts | 105° |
| 2026-05-06 23:11 | 55.87200 | 10.74475 | 22472 ft | 451 kts | 105° |
| 2026-05-06 23:12 | 55.86563 | 10.79908 | 21889 ft | 447 kts | 105° |
| 2026-05-06 23:12 | 55.85914 | 10.85280 | 21309 ft | 442 kts | 105° |
| 2026-05-06 23:12 | 55.85268 | 10.90539 | 20746 ft | 439 kts | 105° |
| 2026-05-06 23:12 | 55.84568 | 10.95775 | 20179 ft | 434 kts | 107° |
| 2026-05-06 23:13 | 55.83818 | 11.00913 | 19625 ft | 431 kts | 107° |
| 2026-05-06 23:13 | 55.83055 | 11.06071 | 19067 ft | 427 kts | 107° |
| 2026-05-06 23:13 | 55.82302 | 11.11137 | 18511 ft | 424 kts | 107° |
| 2026-05-06 23:13 | 55.81560 | 11.16134 | 17972 ft | 421 kts | 106° |
| 2026-05-06 23:14 | 55.80817 | 11.21140 | 17451 ft | 417 kts | 106° |
| 2026-05-06 23:14 | 55.80086 | 11.26051 | 17070 ft | 409 kts | 106° |
| 2026-05-06 23:14 | 55.79361 | 11.30903 | 16720 ft | 402 kts | 106° |
| 2026-05-06 23:14 | 55.78659 | 11.35592 | 16498 ft | 391 kts | 106° |
| 2026-05-06 23:15 | 55.77970 | 11.40181 | 16369 ft | 378 kts | 106° |
| 2026-05-06 23:15 | 55.77417 | 11.44672 | 16240 ft | 367 kts | 101° |
| 2026-05-06 23:15 | 55.77089 | 11.49105 | 15954 ft | 361 kts | 97° |
| 2026-05-06 23:15 | 55.76842 | 11.53503 | 15636 ft | 356 kts | 96° |
| 2026-05-06 23:16 | 55.76609 | 11.57856 | 15331 ft | 352 kts | 96° |
| 2026-05-06 23:16 | 55.76378 | 11.62140 | 15029 ft | 347 kts | 96° |
| 2026-05-06 23:16 | 55.76145 | 11.66357 | 14723 ft | 342 kts | 96° |
| 2026-05-06 23:16 | 55.75909 | 11.70546 | 14428 ft | 337 kts | 96° |
| 2026-05-06 23:17 | 55.75675 | 11.74650 | 14138 ft | 333 kts | 96° |
| 2026-05-06 23:17 | 55.75443 | 11.78676 | 13856 ft | 328 kts | 96° |
| 2026-05-06 23:17 | 55.75209 | 11.82704 | 13580 ft | 324 kts | 96° |
| 2026-05-06 23:17 | 55.74982 | 11.86615 | 13310 ft | 319 kts | 96° |
| 2026-05-06 23:18 | 55.74755 | 11.90490 | 13037 ft | 315 kts | 96° |
| 2026-05-06 23:18 | 55.74530 | 11.94320 | 12760 ft | 311 kts | 96° |
| 2026-05-06 23:18 | 55.74304 | 11.98118 | 12446 ft | 308 kts | 96° |
| 2026-05-06 23:18 | 55.74079 | 12.01866 | 12128 ft | 306 kts | 96° |
| 2026-05-06 23:19 | 55.73856 | 12.05584 | 11799 ft | 304 kts | 96° |
| 2026-05-06 23:19 | 55.73631 | 12.09336 | 11482 ft | 302 kts | 96° |
| 2026-05-06 23:19 | 55.73408 | 12.13011 | 11161 ft | 300 kts | 96° |
| 2026-05-06 23:19 | 55.73188 | 12.16649 | 10859 ft | 298 kts | 96° |
| 2026-05-06 23:20 | 55.72965 | 12.20283 | 10523 ft | 297 kts | 96° |
| 2026-05-06 23:20 | 55.72739 | 12.23933 | 10207 ft | 295 kts | 96° |
| 2026-05-06 23:20 | 55.72520 | 12.27486 | 9903 ft | 293 kts | 96° |
| 2026-05-06 23:20 | 55.72297 | 12.31084 | 9609 ft | 291 kts | 95° |
| 2026-05-06 23:21 | 55.72077 | 12.34629 | 9307 ft | 288 kts | 96° |
| 2026-05-06 23:21 | 55.71858 | 12.38141 | 9021 ft | 286 kts | 96° |
| 2026-05-06 23:21 | 55.71640 | 12.41589 | 8720 ft | 283 kts | 95° |
| 2026-05-06 23:21 | 55.71421 | 12.45040 | 8428 ft | 281 kts | 95° |
| 2026-05-06 23:22 | 55.71207 | 12.48492 | 8130 ft | 278 kts | 94° |
| 2026-05-06 23:22 | 55.71347 | 12.51850 | 7817 ft | 275 kts | 73° |
| 2026-05-06 23:22 | 55.72070 | 12.54935 | 7541 ft | 271 kts | 63° |
| 2026-05-06 23:22 | 55.72930 | 12.57881 | 7254 ft | 269 kts | 62° |
| 2026-05-06 23:23 | 55.73798 | 12.60822 | 6951 ft | 267 kts | 62° |
| 2026-05-06 23:23 | 55.74717 | 12.63654 | 6646 ft | 265 kts | 54° |
| 2026-05-06 23:23 | 55.75946 | 12.66102 | 6356 ft | 263 kts | 44° |
| 2026-05-06 23:23 | 55.77303 | 12.68248 | 6060 ft | 261 kts | 42° |
| 2026-05-06 23:24 | 55.78659 | 12.70329 | 5757 ft | 260 kts | 42° |
| 2026-05-06 23:24 | 55.80018 | 12.72418 | 5464 ft | 258 kts | 42° |
| 2026-05-06 23:24 | 55.81366 | 12.74506 | 5189 ft | 256 kts | 43° |
| 2026-05-06 23:24 | 55.82697 | 12.76578 | 4972 ft | 251 kts | 43° |
| 2026-05-06 23:25 | 55.83987 | 12.78593 | 4788 ft | 245 kts | 43° |
| 2026-05-06 23:25 | 55.85249 | 12.80599 | 4573 ft | 241 kts | 44° |
| 2026-05-06 23:25 | 55.86482 | 12.82596 | 4357 ft | 237 kts | 44° |
| 2026-05-06 23:25 | 55.87683 | 12.84547 | 4149 ft | 233 kts | 44° |
| 2026-05-06 23:26 | 55.88881 | 12.86494 | 3948 ft | 230 kts | 44° |
| 2026-05-06 23:26 | 55.90037 | 12.88377 | 3761 ft | 226 kts | 44° |
| 2026-05-06 23:26 | 55.91034 | 12.90657 | 3506 ft | 247 kts | 68° |
| 2026-05-06 23:26 | 55.91297 | 12.93705 | 3182 ft | 256 kts | 97° |
| 2026-05-06 23:27 | 55.90659 | 12.96659 | 2894 ft | 257 kts | 127° |
| 2026-05-06 23:27 | 55.89328 | 12.98632 | 2851 ft | 245 kts | 156° |
| 2026-05-06 23:27 | 55.87722 | 12.99230 | 2848 ft | 231 kts | 184° |
| 2026-05-06 23:27 | 55.86225 | 12.98523 | 2853 ft | 226 kts | 208° |
| 2026-05-06 23:28 | 55.84859 | 12.97066 | 2858 ft | 226 kts | 212° |
| 2026-05-06 23:28 | 55.83541 | 12.95579 | 2858 ft | 226 kts | 212° |
| 2026-05-06 23:28 | 55.82199 | 12.94071 | 2858 ft | 226 kts | 212° |
| 2026-05-06 23:28 | 55.80870 | 12.92597 | 2858 ft | 226 kts | 212° |
| 2026-05-06 23:29 | 55.79480 | 12.91264 | 2858 ft | 226 kts | 204° |
| 2026-05-06 23:29 | 55.78041 | 12.90139 | 2858 ft | 226 kts | 207° |
| 2026-05-06 23:29 | 55.76702 | 12.88697 | 2858 ft | 226 kts | 216° |
| 2026-05-06 23:29 | 55.75494 | 12.86931 | 2854 ft | 219 kts | 222° |
| 2026-05-06 23:30 | 55.74403 | 12.85149 | 2851 ft | 209 kts | 223° |
| 2026-05-06 23:30 | 55.73327 | 12.83411 | 2814 ft | 209 kts | 222° |
| 2026-05-06 23:30 | 55.72243 | 12.81714 | 2588 ft | 210 kts | 221° |
| 2026-05-06 23:30 | 55.71148 | 12.80028 | 2299 ft | 206 kts | 221° |
| 2026-05-06 23:31 | 55.70091 | 12.78408 | 2019 ft | 199 kts | 221° |
| 2026-05-06 23:31 | 55.69057 | 12.76819 | 1750 ft | 194 kts | 221° |
| 2026-05-06 23:31 | 55.68041 | 12.75254 | 1488 ft | 190 kts | 221° |
| 2026-05-06 23:31 | 55.67071 | 12.73758 | 1300 ft | 180 kts | 221° |
| 2026-05-06 23:32 | 55.66138 | 12.72317 | 1051 ft | 173 kts | 221° |
| 2026-05-06 23:32 | 55.65263 | 12.70966 | 798 ft | 164 kts | 221° |
| 2026-05-06 23:32 | 55.64428 | 12.69675 | 552 ft | 153 kts | 221° |
| 2026-05-06 23:32 | 55.63660 | 12.68493 | 334 ft | 142 kts | 221° |
| 2026-05-06 23:33 | 55.62952 | 12.67368 | 143 ft | 130 kts | 221° |
| 2026-05-06 23:33 | 55.62278 | 12.66342 | 31 ft | 127 kts | 221° |
| 2026-05-06 23:33 | 55.61702 | 12.65454 | 25 ft | 88 kts | 221° |
| 2026-05-06 23:33 | 55.61396 | 12.64969 | 27 ft | 47 kts | 225° |
| 2026-05-06 23:34 | 55.61296 | 12.64739 | 28 ft | 17 kts | 246° |
| 2026-05-06 23:34 | 55.61247 | 12.64541 | 27 ft | 17 kts | 249° |
| 2026-05-06 23:34 | 55.61203 | 12.64327 | 26 ft | 18 kts | 256° |
| 2026-05-06 23:34 | 55.61233 | 12.64129 | 27 ft | 17 kts | 331° |
| 2026-05-06 23:35 | 55.61348 | 12.64185 | 27 ft | 17 kts | 32° |
| 2026-05-06 23:35 | 55.61451 | 12.64308 | 28 ft | 18 kts | 36° |
| 2026-05-06 23:35 | 55.61560 | 12.64439 | 26 ft | 19 kts | 33° |
| 2026-05-06 23:35 | 55.61681 | 12.64553 | 27 ft | 19 kts | 12° |
| 2026-05-06 23:36 | 55.61818 | 12.64537 | 27 ft | 20 kts | 350° |
| 2026-05-06 23:36 | 55.61959 | 12.64508 | 26 ft | 21 kts | 10° |
| 2026-05-06 23:36 | 55.62088 | 12.64628 | 26 ft | 21 kts | 33° |
| 2026-05-06 23:36 | 55.62212 | 12.64771 | 26 ft | 21 kts | 27° |
| 2026-05-06 23:37 | 55.62358 | 12.64782 | 26 ft | 21 kts | 353° |
| 2026-05-06 23:37 | 55.62454 | 12.64598 | 26 ft | 21 kts | 301° |
| 2026-05-06 23:37 | 55.62535 | 12.64383 | 26 ft | 21 kts | 305° |
| 2026-05-06 23:37 | 55.62617 | 12.64279 | 26 ft | 11 kts | 17° |
| 2026-05-06 23:38 | 55.62694 | 12.64334 | 26 ft | 7 kts | 11° |
| 2026-05-06 23:38 | 55.62727 | 12.64288 | 26 ft | 2 kts | 303° |
| 2026-05-06 23:38 | 55.62732 | 12.64275 | 26 ft | 1 kts | 302° |
| 2026-05-06 23:38 | 55.62732 | 12.64272 | 26 ft | 0 kts | 302° |